createdAt,value
2019-03-28T00:02:19.153Z,7.33
2019-03-28T00:04:48.048Z,7.30
2019-03-28T00:07:17.011Z,10.07
2019-03-28T00:09:46.091Z,8.83
2019-03-28T00:12:15.290Z,7.40
2019-03-28T00:14:44.151Z,6.57
2019-03-28T00:17:13.380Z,12.93
2019-03-28T00:19:42.200Z,9.80
2019-03-28T00:22:12.659Z,11.10
2019-03-28T00:25:06.860Z,9.53
2019-03-28T00:27:35.745Z,10.80
2019-03-28T00:30:05.340Z,7.70
2019-03-28T00:32:34.132Z,10.23
2019-03-28T00:35:03.168Z,9.10
2019-03-28T00:37:32.065Z,9.97
2019-03-28T00:40:00.932Z,9.33
2019-03-28T00:42:29.720Z,10.47
2019-03-28T00:44:58.540Z,11.10
2019-03-28T00:47:27.416Z,9.53
2019-03-28T00:49:56.226Z,6.83
2019-03-28T00:52:25.128Z,9.20
2019-03-28T00:54:53.925Z,8.67
2019-03-28T00:57:22.725Z,10.27
2019-03-28T00:59:51.610Z,8.73
2019-03-28T01:02:21.216Z,8.73
2019-03-28T01:04:50.248Z,9.00
2019-03-28T01:07:19.128Z,9.03
2019-03-28T01:09:47.902Z,10.80
2019-03-28T01:12:17.121Z,8.80
2019-03-28T01:14:45.990Z,12.40
2019-03-28T01:17:14.837Z,8.60
2019-03-28T01:19:43.653Z,10.17
2019-03-28T01:22:12.477Z,7.43
2019-03-28T01:24:41.336Z,9.07
2019-03-28T01:27:11.013Z,11.97
2019-03-28T01:29:39.858Z,9.37
2019-03-28T01:32:08.711Z,9.30
2019-03-28T01:34:37.581Z,11.67
2019-03-28T01:37:06.561Z,10.13
2019-03-28T01:39:35.461Z,10.13
2019-03-28T01:42:04.325Z,11.93
2019-03-28T01:44:33.618Z,9.03
2019-03-28T01:47:02.565Z,9.47
2019-03-28T01:49:31.362Z,10.43
2019-03-28T01:52:00.254Z,9.07
2019-03-28T01:54:29.471Z,11.80
2019-03-28T01:57:10.339Z,11.33
2019-03-28T01:59:30.416Z,10.60
2019-03-28T02:01:59.666Z,13.67
2019-03-28T02:04:28.521Z,13.03
2019-03-28T02:06:57.426Z,10.93
2019-03-28T02:09:26.248Z,10.67
2019-03-28T02:11:55.050Z,11.47
2019-03-28T02:14:23.960Z,13.43
2019-03-28T02:16:52.749Z,12.27
2019-03-28T02:19:21.675Z,9.53
2019-03-28T02:21:50.538Z,13.30
2019-03-28T02:24:19.442Z,9.80
2019-03-28T02:26:48.178Z,14.23
2019-03-28T02:29:16.962Z,12.90
2019-03-28T02:31:45.758Z,11.77
2019-03-28T02:34:14.981Z,14.70
2019-03-28T02:36:43.787Z,15.27
2019-03-28T02:39:12.652Z,16.17
2019-03-28T02:41:41.439Z,14.43
2019-03-28T02:44:10.298Z,11.23
2019-03-28T02:46:39.140Z,12.57
2019-03-28T02:49:08.300Z,11.97
2019-03-28T02:51:37.120Z,14.27
2019-03-28T02:54:05.902Z,15.27
2019-03-28T02:56:34.836Z,13.43
2019-03-28T02:59:03.734Z,11.97
2019-03-28T03:01:32.519Z,13.03
2019-03-28T03:04:01.407Z,14.90
2019-03-28T03:06:30.252Z,16.87
2019-03-28T03:08:59.716Z,10.40
2019-03-28T03:11:28.852Z,13.40
2019-03-28T03:13:57.688Z,15.93
2019-03-28T03:16:26.580Z,14.87
2019-03-28T03:18:55.460Z,12.50
2019-03-28T03:21:24.780Z,13.43
2019-03-28T03:23:53.977Z,12.57
2019-03-28T03:26:22.772Z,14.67
2019-03-28T03:28:52.256Z,14.00
2019-03-28T03:31:22.174Z,15.30
2019-03-28T03:33:51.316Z,14.40
2019-03-28T03:36:20.220Z,13.10
2019-03-28T03:38:49.095Z,13.97
2019-03-28T03:41:17.892Z,16.13
2019-03-28T03:43:46.776Z,13.93
2019-03-28T03:46:15.997Z,16.53
2019-03-28T03:48:44.948Z,14.27
2019-03-28T03:51:14.617Z,15.00
2019-03-28T03:53:43.732Z,15.23
2019-03-28T03:56:12.612Z,18.27
2019-03-28T03:58:41.469Z,16.83
2019-03-28T04:01:10.356Z,15.53
2019-03-28T04:03:39.597Z,15.07
2019-03-28T04:06:08.408Z,15.80
2019-03-28T04:08:37.303Z,12.67
2019-03-28T04:11:06.201Z,14.47
2019-03-28T04:13:35.085Z,13.37
2019-03-28T04:16:04.165Z,19.03
2019-03-28T04:18:33.410Z,18.67
2019-03-28T04:21:02.224Z,16.40
2019-03-28T04:23:31.069Z,15.30
2019-03-28T04:25:59.865Z,17.00
2019-03-28T04:28:32.282Z,18.60
2019-03-28T04:30:59.343Z,16.37
2019-03-28T04:33:28.166Z,15.30
2019-03-28T04:35:57.057Z,20.57
2019-03-28T04:38:25.901Z,15.40
2019-03-28T04:40:54.700Z,19.70
2019-03-28T04:43:23.517Z,22.97
2019-03-28T04:45:52.318Z,17.80
2019-03-28T04:48:21.125Z,23.47
2019-03-28T04:50:49.981Z,20.33
2019-03-28T04:53:18.890Z,20.97
2019-03-28T04:55:47.680Z,19.30
2019-03-28T04:58:16.489Z,18.40
2019-03-28T05:00:45.469Z,20.57
2019-03-28T05:03:14.489Z,19.40
2019-03-28T05:05:43.379Z,19.57
2019-03-28T05:08:12.253Z,25.80
2019-03-28T05:10:41.601Z,22.43
2019-03-28T05:13:10.762Z,18.13
2019-03-28T05:15:39.553Z,19.23
2019-03-28T05:18:08.459Z,19.67
2019-03-28T05:20:37.233Z,19.83
2019-03-28T05:23:06.142Z,25.40
2019-03-28T05:25:35.037Z,23.30
2019-03-28T05:28:03.907Z,21.43
2019-03-28T05:30:32.794Z,27.47
2019-03-28T05:33:01.602Z,20.27
2019-03-28T05:35:30.381Z,24.43
2019-03-28T05:37:59.262Z,21.73
2019-03-28T05:40:28.521Z,22.60
2019-03-28T05:42:57.582Z,23.03
2019-03-28T05:45:26.319Z,26.57
2019-03-28T05:47:55.826Z,22.80
2019-03-28T05:50:24.738Z,22.60
2019-03-28T05:52:54.506Z,27.53
2019-03-28T05:55:23.302Z,21.97
2019-03-28T05:57:52.058Z,22.37
2019-03-28T06:00:20.869Z,23.13
2019-03-28T06:02:50.470Z,23.93
2019-03-28T06:05:19.246Z,22.23
2019-03-28T06:07:48.071Z,23.00
2019-03-28T06:10:16.882Z,24.10
2019-03-28T06:12:45.670Z,21.77
2019-03-28T06:15:14.663Z,22.67
2019-03-28T06:17:43.598Z,27.83
2019-03-28T06:20:12.567Z,28.40
2019-03-28T06:22:41.367Z,26.23
2019-03-28T06:25:10.307Z,22.73
2019-03-28T06:27:39.211Z,27.20
2019-03-28T06:30:08.533Z,29.63
2019-03-28T06:32:42.719Z,21.13
2019-03-28T06:35:07.871Z,24.07
2019-03-28T06:37:36.735Z,24.17
2019-03-28T06:40:06.129Z,21.37
2019-03-28T06:42:34.981Z,25.00
2019-03-28T06:45:04.143Z,19.97
2019-03-28T06:47:32.995Z,22.87
2019-03-28T06:50:01.808Z,22.50
2019-03-28T06:52:30.647Z,29.17
2019-03-28T06:54:59.723Z,27.90
2019-03-28T06:57:28.528Z,23.40
2019-03-28T06:59:57.400Z,24.77
2019-03-28T07:02:26.215Z,24.13
2019-03-28T07:04:55.023Z,27.07
2019-03-28T07:07:23.947Z,22.40
2019-03-28T07:09:52.847Z,26.57
2019-03-28T07:12:21.750Z,22.77
2019-03-28T07:14:50.595Z,24.30
2019-03-28T07:17:19.415Z,21.37
2019-03-28T07:19:48.228Z,25.33
2019-03-28T07:22:17.027Z,28.93
2019-03-28T07:24:45.939Z,27.23
2019-03-28T07:27:15.203Z,24.27
2019-03-28T07:29:50.798Z,23.43
2019-03-28T07:32:14.486Z,24.83
2019-03-28T07:34:43.283Z,26.03
2019-03-28T07:37:12.614Z,24.27
2019-03-28T07:39:41.582Z,25.20
2019-03-28T07:42:10.461Z,26.27
2019-03-28T07:44:39.300Z,25.40
2019-03-28T07:47:08.235Z,22.97
2019-03-28T07:49:37.754Z,27.37
2019-03-28T07:52:06.832Z,25.13
2019-03-28T07:54:48.961Z,21.10
2019-03-28T07:57:17.904Z,28.47
2019-03-28T07:59:46.727Z,24.23
2019-03-28T08:02:15.603Z,25.07
2019-03-28T08:04:44.424Z,21.77
2019-03-28T08:07:13.331Z,22.07
2019-03-28T08:09:42.204Z,23.83
2019-03-28T08:12:21.964Z,19.13
2019-03-28T08:14:41.584Z,22.03
2019-03-28T08:17:10.436Z,25.93
2019-03-28T08:19:41.520Z,21.83
2019-03-28T08:22:10.904Z,24.60
2019-03-28T08:24:39.730Z,20.47
2019-03-28T08:27:08.622Z,23.27
2019-03-28T08:29:37.852Z,22.93
2019-03-28T08:32:13.477Z,18.47
2019-03-28T08:34:41.352Z,19.17
2019-03-28T08:37:10.320Z,22.37
2019-03-28T08:39:39.208Z,21.13
2019-03-28T08:42:09.001Z,21.53
2019-03-28T08:44:38.857Z,21.73
2019-03-28T08:47:08.545Z,21.47
2019-03-28T08:49:38.337Z,22.80
2019-03-28T08:52:08.033Z,17.63
2019-03-28T08:54:37.701Z,19.53
2019-03-28T08:57:07.654Z,17.13
2019-03-28T08:59:37.213Z,21.60
2019-03-28T09:02:07.429Z,19.20
2019-03-28T09:04:37.149Z,18.97
2019-03-28T09:07:06.858Z,17.27
2019-03-28T09:09:36.523Z,17.67
2019-03-28T09:12:06.357Z,17.27
2019-03-28T09:14:35.949Z,18.83
2019-03-28T09:17:05.694Z,18.37
2019-03-28T09:19:35.248Z,16.83
2019-03-28T09:22:05.001Z,23.30
2019-03-28T09:24:34.786Z,20.17
2019-03-28T09:27:04.418Z,14.67
2019-03-28T09:29:34.078Z,17.07
2019-03-28T09:32:03.918Z,15.20
2019-03-28T09:34:33.937Z,18.13
2019-03-28T09:37:03.655Z,15.17
2019-03-28T09:39:33.323Z,15.17
2019-03-28T09:42:03.030Z,16.57
2019-03-28T09:44:32.784Z,20.60
2019-03-28T09:47:02.569Z,18.70
2019-03-28T09:49:32.899Z,19.60
2019-03-28T09:52:02.780Z,18.47
2019-03-28T09:54:32.535Z,16.07
2019-03-28T09:57:02.270Z,13.90
2019-03-28T09:59:31.898Z,17.20
2019-03-28T10:02:02.734Z,15.73
2019-03-28T10:04:33.114Z,20.47
2019-03-28T10:07:03.167Z,18.10
2019-03-28T10:09:32.882Z,20.37
2019-03-28T10:12:02.606Z,15.93
2019-03-28T10:14:32.241Z,13.83
2019-03-28T10:17:01.970Z,20.10
2019-03-28T10:19:31.692Z,14.27
2019-03-28T10:22:01.764Z,15.27
2019-03-28T10:24:31.615Z,13.97
2019-03-28T10:27:01.231Z,18.90
2019-03-28T10:29:30.783Z,15.10
2019-03-28T10:32:00.496Z,17.87
2019-03-28T10:34:30.189Z,12.30
2019-03-28T10:36:59.952Z,10.83
2019-03-28T10:39:29.679Z,13.20
2019-03-28T10:41:59.660Z,15.03
2019-03-28T10:44:29.308Z,17.80
2019-03-28T10:46:59.308Z,16.00
2019-03-28T10:49:29.000Z,13.13
2019-03-28T10:51:58.665Z,14.33
2019-03-28T10:54:28.208Z,13.80
2019-03-28T10:56:58.183Z,10.93
2019-03-28T10:59:28.176Z,12.33
2019-03-28T11:01:58.133Z,17.83
2019-03-28T11:04:27.856Z,12.77
2019-03-28T11:06:58.504Z,13.40
2019-03-28T11:09:28.242Z,12.20
2019-03-28T11:11:57.980Z,12.23
2019-03-28T11:14:27.822Z,49.67
2019-03-28T11:16:57.487Z,12.93
2019-03-28T11:19:27.127Z,12.87
2019-03-28T11:21:56.791Z,10.97
2019-03-28T11:24:26.466Z,8.43
2019-03-28T11:26:56.262Z,11.27
2019-03-28T11:29:25.818Z,10.63
2019-03-28T11:31:55.446Z,9.70
2019-03-28T11:34:25.026Z,10.70
2019-03-28T11:36:54.671Z,10.73
2019-03-28T11:39:24.366Z,10.53
2019-03-28T11:41:54.062Z,11.03
2019-03-28T11:44:23.678Z,11.17
2019-03-28T11:46:53.358Z,8.63
2019-03-28T11:49:23.286Z,12.27
2019-03-28T11:51:53.294Z,10.83
2019-03-28T11:54:23.195Z,11.73
2019-03-28T11:56:52.923Z,10.07
2019-03-28T11:59:22.626Z,10.50
2019-03-28T12:01:59.795Z,8.73
2019-03-28T12:04:23.378Z,10.43
2019-03-28T12:06:53.007Z,11.97
2019-03-28T12:09:22.635Z,12.87
2019-03-28T12:11:52.986Z,10.67
2019-03-28T12:14:22.769Z,9.73
2019-03-28T12:16:52.451Z,4.13
2019-03-28T12:19:22.099Z,6.43
2019-03-28T12:21:51.659Z,8.60
2019-03-28T12:24:21.310Z,2.57
2019-03-28T12:26:51.003Z,4.83
2019-03-28T12:29:20.635Z,2.10
2019-03-28T12:31:50.655Z,2.60
2019-03-28T12:34:20.288Z,4.30
2019-03-28T12:36:49.847Z,7.83
2019-03-28T12:39:20.849Z,6.50
2019-03-28T12:41:50.635Z,6.47
2019-03-28T12:44:20.755Z,7.43
2019-03-28T12:46:50.454Z,6.87
2019-03-28T12:49:20.158Z,5.23
2019-03-28T12:51:49.753Z,5.23
2019-03-28T12:54:19.456Z,12.70
2019-03-28T12:56:49.368Z,5.33
2019-03-28T12:59:18.927Z,4.27
2019-03-28T13:01:48.823Z,5.20
2019-03-28T13:04:18.483Z,5.00
2019-03-28T13:06:48.136Z,7.30
2019-03-28T13:09:17.840Z,4.17
2019-03-28T13:11:47.460Z,4.73
2019-03-28T13:14:17.104Z,7.03
2019-03-28T13:16:46.816Z,10.70
2019-03-28T13:19:16.549Z,8.50
2019-03-28T13:21:46.245Z,9.83
2019-03-28T13:24:15.972Z,10.80
2019-03-28T13:26:45.556Z,12.37
2019-03-28T13:29:15.348Z,8.60
2019-03-28T13:31:45.046Z,13.27
2019-03-28T13:34:14.655Z,13.47
2019-03-28T13:36:44.884Z,19.57
2019-03-28T13:39:14.440Z,13.67
2019-03-28T13:41:44.489Z,15.33
2019-03-28T13:44:14.347Z,12.60
2019-03-28T13:46:44.111Z,16.57
2019-03-28T13:49:14.271Z,12.47
2019-03-28T13:51:43.916Z,14.97
2019-03-28T13:54:13.795Z,17.67
2019-03-28T13:56:44.084Z,13.47
2019-03-28T13:59:13.718Z,14.50
2019-03-28T14:01:43.395Z,14.07
2019-03-28T14:04:13.015Z,15.13
2019-03-28T14:06:42.662Z,14.10
2019-03-28T14:09:12.387Z,17.00
2019-03-28T14:11:41.979Z,16.63
2019-03-28T14:14:11.643Z,17.00
2019-03-28T14:16:41.300Z,18.00
2019-03-28T14:19:10.904Z,16.77
2019-03-28T14:21:43.272Z,13.77
2019-03-28T14:24:12.869Z,12.53
2019-03-28T14:26:42.304Z,13.50
2019-03-28T14:29:11.852Z,15.37
2019-03-28T14:31:42.076Z,12.97
2019-03-28T14:34:11.722Z,15.17
2019-03-28T14:36:44.557Z,11.47
2019-03-28T14:39:15.100Z,10.07
2019-03-28T14:41:46.525Z,12.70
2019-03-28T14:44:16.132Z,13.47
2019-03-28T14:46:45.704Z,10.90
2019-03-28T14:49:15.442Z,10.40
2019-03-28T14:51:45.280Z,9.33
2019-03-28T14:54:14.912Z,12.30
2019-03-28T14:56:45.357Z,11.03
2019-03-28T14:59:15.536Z,15.80
2019-03-28T15:01:45.404Z,11.73
2019-03-28T15:04:14.960Z,12.23
2019-03-28T15:06:44.467Z,12.53
2019-03-28T15:09:14.093Z,11.20
2019-03-28T15:11:43.683Z,13.00
2019-03-28T15:14:13.380Z,14.37
2019-03-28T15:16:42.956Z,11.37
2019-03-28T15:19:12.538Z,14.87
2019-03-28T15:21:42.137Z,16.20
2019-03-28T15:24:11.649Z,11.07
2019-03-28T15:26:41.387Z,13.73
2019-03-28T15:29:10.980Z,15.37
2019-03-28T15:31:40.613Z,20.70
2019-03-28T15:34:10.213Z,19.10
2019-03-28T15:36:42.053Z,11.60
2019-03-28T15:39:11.457Z,10.77
2019-03-28T15:41:41.105Z,14.33
2019-03-28T15:44:10.737Z,15.27
2019-03-28T15:46:40.674Z,12.23
2019-03-28T15:49:10.370Z,13.27
2019-03-28T15:51:39.983Z,13.80
2019-03-28T15:54:09.605Z,17.60
2019-03-28T15:56:40.113Z,12.57
2019-03-28T15:59:09.855Z,10.70
2019-03-28T16:01:39.425Z,13.00
2019-03-28T16:04:09.473Z,16.70
2019-03-28T16:06:39.045Z,11.93
2019-03-28T16:09:08.985Z,12.53
2019-03-28T16:11:38.539Z,14.30
2019-03-28T16:14:08.481Z,13.57
2019-03-28T16:16:38.102Z,14.27
2019-03-28T16:19:07.962Z,11.33
2019-03-28T16:21:37.550Z,11.20
2019-03-28T16:24:07.154Z,12.23
2019-03-28T16:26:36.620Z,10.37
2019-03-28T16:29:07.328Z,9.83
2019-03-28T16:31:37.382Z,12.87
2019-03-28T16:34:07.622Z,10.00
2019-03-28T16:36:37.234Z,11.07
2019-03-28T16:39:08.217Z,13.10
2019-03-28T16:41:37.874Z,18.00
2019-03-28T16:44:07.562Z,9.33
2019-03-28T16:46:37.187Z,12.67
2019-03-28T16:49:06.780Z,14.63
2019-03-28T16:51:36.346Z,16.47
2019-03-28T16:54:06.058Z,12.97
2019-03-28T16:56:35.606Z,10.20
2019-03-28T16:59:05.239Z,10.40
2019-03-28T17:01:34.846Z,13.93
2019-03-28T17:04:04.430Z,10.60
2019-03-28T17:06:34.048Z,10.57
2019-03-28T17:09:05.884Z,11.87
2019-03-28T17:11:36.158Z,11.23
2019-03-28T17:14:05.843Z,12.60
2019-03-28T17:16:35.507Z,15.53
2019-03-28T17:19:05.130Z,11.00
2019-03-28T17:21:34.762Z,10.43
2019-03-28T17:24:04.659Z,12.10
2019-03-28T17:26:34.291Z,12.93
2019-03-28T17:29:04.159Z,12.07
2019-03-28T17:31:34.060Z,14.67
2019-03-28T17:34:03.764Z,11.50
2019-03-28T17:36:33.565Z,17.33
2019-03-28T17:39:04.619Z,10.77
2019-03-28T17:41:34.347Z,11.80
2019-03-28T17:44:04.584Z,11.77
2019-03-28T17:46:34.419Z,11.60
2019-03-28T17:49:04.279Z,14.63
2019-03-28T17:51:34.029Z,14.43
2019-03-28T17:54:03.588Z,11.40
2019-03-28T17:56:33.128Z,14.07
2019-03-28T17:59:02.768Z,14.70
2019-03-28T18:01:32.451Z,11.60
2019-03-28T18:04:02.084Z,9.37
2019-03-28T18:06:31.774Z,12.10
2019-03-28T18:09:01.386Z,12.13
2019-03-28T18:11:30.956Z,12.87
2019-03-28T18:14:00.887Z,12.00
2019-03-28T18:16:31.064Z,12.20
2019-03-28T18:19:02.587Z,16.37
2019-03-28T18:21:32.660Z,14.73
2019-03-28T18:24:03.252Z,13.07
2019-03-28T18:26:33.404Z,15.37
2019-03-28T18:29:03.332Z,13.53
2019-03-28T18:31:33.221Z,18.07
2019-03-28T18:34:03.033Z,20.40
2019-03-28T18:36:32.771Z,19.83
2019-03-28T18:39:02.961Z,16.07
2019-03-28T18:41:32.717Z,17.17
2019-03-28T18:44:02.521Z,16.13
2019-03-28T18:46:31.997Z,15.20
2019-03-28T18:49:01.561Z,13.77
2019-03-28T18:51:32.668Z,18.73
2019-03-28T18:54:02.225Z,17.83
2019-03-28T18:56:31.765Z,13.97
2019-03-28T18:59:01.294Z,15.70
2019-03-28T19:01:30.984Z,23.83
2019-03-28T19:04:00.805Z,23.00
2019-03-28T19:06:30.397Z,18.73
2019-03-28T19:09:00.006Z,15.53
2019-03-28T19:11:29.718Z,17.97
2019-03-28T19:13:59.553Z,12.83
2019-03-28T19:16:29.149Z,18.13
2019-03-28T19:18:59.929Z,16.50
2019-03-28T19:21:29.606Z,12.87
2019-03-28T19:23:59.424Z,16.83
2019-03-28T19:26:29.049Z,12.77
2019-03-28T19:28:58.811Z,13.87
2019-03-28T19:31:28.394Z,18.40
2019-03-28T19:33:58.274Z,13.23
2019-03-28T19:36:28.228Z,15.93
2019-03-28T19:38:58.161Z,12.17
2019-03-28T19:41:27.765Z,14.30
2019-03-28T19:43:57.969Z,14.70
2019-03-28T19:46:27.658Z,15.87
2019-03-28T19:48:57.945Z,16.83
2019-03-28T19:51:28.520Z,16.07
2019-03-28T19:53:58.366Z,19.17
2019-03-28T19:56:27.898Z,18.50
2019-03-28T19:58:57.661Z,15.97
2019-03-28T20:01:28.170Z,58.40
2019-03-28T20:03:57.782Z,29.87
2019-03-28T20:06:27.665Z,24.80
2019-03-28T20:08:57.346Z,17.77
2019-03-28T20:11:27.283Z,21.13
2019-03-28T20:13:57.371Z,19.37
2019-03-28T20:16:26.950Z,17.80
2019-03-28T20:18:56.902Z,18.13
2019-03-28T20:21:26.550Z,18.83
2019-03-28T20:23:56.840Z,20.70
2019-03-28T20:26:26.670Z,15.10
2019-03-28T20:28:56.175Z,22.47
2019-03-28T20:31:25.870Z,19.20
2019-03-28T20:33:55.399Z,17.53
2019-03-28T20:36:37.620Z,21.60
2019-03-28T20:39:03.809Z,17.87
2019-03-28T20:41:27.731Z,19.27
2019-03-28T20:43:57.298Z,16.40
2019-03-28T20:46:26.764Z,19.30
2019-03-28T20:48:56.342Z,15.63
2019-03-28T20:51:26.633Z,15.87
2019-03-28T20:53:56.666Z,16.63
2019-03-28T20:56:26.123Z,19.30
2019-03-28T20:58:55.611Z,18.53
2019-03-28T21:01:25.285Z,14.07
2019-03-28T21:03:54.879Z,12.20
2019-03-28T21:06:24.695Z,14.40
2019-03-28T21:08:54.286Z,14.87
2019-03-28T21:11:23.887Z,16.27
2019-03-28T21:13:53.399Z,15.20
2019-03-28T21:16:22.915Z,12.97
2019-03-28T21:18:53.069Z,12.27
2019-03-28T21:21:22.767Z,13.83
2019-03-28T21:23:52.353Z,12.77
2019-03-28T21:26:21.903Z,14.80
2019-03-28T21:28:51.411Z,16.13
2019-03-28T21:31:21.017Z,16.40
2019-03-28T21:33:53.066Z,13.63
2019-03-28T21:36:29.604Z,15.57
2019-03-28T21:38:53.051Z,14.33
2019-03-28T21:41:22.651Z,15.80
2019-03-28T21:43:52.608Z,16.73
2019-03-28T21:46:22.224Z,15.40
2019-03-28T21:48:52.027Z,13.07
2019-03-28T21:51:21.632Z,11.43
2019-03-28T21:53:51.068Z,14.33
2019-03-28T21:56:20.664Z,14.43
2019-03-28T21:58:50.352Z,17.60
2019-03-28T22:01:20.716Z,16.37
2019-03-28T22:03:51.727Z,14.70
2019-03-28T22:06:21.556Z,24.47
2019-03-28T22:08:51.244Z,18.83
2019-03-28T22:11:20.852Z,18.40
2019-03-28T22:13:50.452Z,14.63
2019-03-28T22:16:20.041Z,15.23
2019-03-28T22:18:49.644Z,15.67
2019-03-28T22:21:19.254Z,16.27
2019-03-28T22:23:48.882Z,14.80
2019-03-28T22:26:18.471Z,20.23
2019-03-28T22:28:48.046Z,18.50
2019-03-28T22:31:17.656Z,20.90
2019-03-28T22:33:47.129Z,19.30
2019-03-28T22:36:17.893Z,16.20
2019-03-28T22:38:47.876Z,18.10
2019-03-28T22:41:17.312Z,18.50
2019-03-28T22:43:46.744Z,20.20
2019-03-28T22:46:16.344Z,18.97
2019-03-28T22:48:45.852Z,18.03
2019-03-28T22:51:15.809Z,19.77
2019-03-28T22:53:45.681Z,16.63
2019-03-28T22:56:15.195Z,19.93
2019-03-28T22:58:45.037Z,23.53
2019-03-28T23:01:15.113Z,21.03
2019-03-28T23:03:45.093Z,20.43
2019-03-28T23:06:14.678Z,18.53
2019-03-28T23:08:44.293Z,21.80
2019-03-28T23:11:13.988Z,18.23
2019-03-28T23:13:43.765Z,15.47
2019-03-28T23:16:13.422Z,16.97
2019-03-28T23:18:43.010Z,17.77
2019-03-28T23:21:12.576Z,18.30
2019-03-28T23:23:42.038Z,16.03
2019-03-28T23:26:11.465Z,15.13
2019-03-28T23:28:40.914Z,16.60
2019-03-28T23:31:10.405Z,15.53
2019-03-28T23:33:40.002Z,16.00
2019-03-28T23:36:09.618Z,16.30
2019-03-28T23:38:39.134Z,13.67
2019-03-28T23:41:08.749Z,15.63
2019-03-28T23:43:38.237Z,14.00
2019-03-28T23:46:07.825Z,15.13
2019-03-28T23:48:37.329Z,17.87
2019-03-28T23:51:06.846Z,17.73
2019-03-28T23:53:36.342Z,13.50
2019-03-28T23:56:05.941Z,15.77
2019-03-28T23:58:35.438Z,14.50
